Time;durP1;ratioP1;P1;durP2;ratioP2;P2;SDS_P1;SDS_P2;PMS_P1;PMS_P2;Temp;Humidity;BMP_temperature;BMP_pressure;BME280_temperature;BME280_humidity;BME280_pressure;Samples;Min_cycle;Max_cycle;Signal;HPM_P1;HPM_P2
2021/12/06 00:00:50;;;;;;;29.53;23.47;;;;;;;;;;6225862;28;20834;-61
2021/12/06 00:04:15;;;;;;;31.50;25.50;;;;;;;;;;6234194;28;20228;-59
2021/12/06 00:07:38;;;;;;;34.00;27.20;;;;;;;;;;6236674;28;20617;-60
2021/12/06 00:11:06;;;;;;;30.83;25.00;;;;;;;;;;6233268;28;20232;-61
2021/12/06 00:14:30;;;;;;;31.53;25.47;;;;;;;;;;6232883;28;20235;-61
2021/12/06 00:17:51;;;;;;;29.20;24.47;;;;;;;;;;6234086;28;20232;-61
2021/12/06 00:21:12;;;;;;;31.93;25.57;;;;;;;;;;6231398;28;20597;-61
2021/12/06 00:24:33;;;;;;;29.17;24.33;;;;;;;;;;6237383;28;20712;-61
2021/12/06 00:27:55;;;;;;;30.20;22.50;;;;;;;;;;6234935;28;20572;-60
2021/12/06 00:31:16;;;;;;;28.53;23.57;;;;;;;;;;6233294;28;20601;-60
2021/12/06 00:34:38;;;;;;;31.87;24.87;;;;;;;;;;6230458;28;20602;-60
2021/12/06 00:38:00;;;;;;;28.67;24.23;;;;;;;;;;6233570;28;20229;-61
2021/12/06 00:41:21;;;;;;;29.40;22.77;;;;;;;;;;6227568;28;20257;-60
2021/12/06 00:44:43;;;;;;;27.77;22.60;;;;;;;;;;6237400;28;20244;-61
2021/12/06 00:48:05;;;;;;;30.93;22.77;;;;;;;;;;6215579;28;20220;-59
2021/12/06 00:51:26;;;;;;;27.77;22.80;;;;;;;;;;6218212;28;20247;-60
2021/12/06 00:54:48;;;;;;;25.27;21.17;;;;;;;;;;6221136;28;20229;-59
2021/12/06 00:58:08;;;;;;;25.27;22.57;;;;;;;;;;6232777;28;20618;-61
2021/12/06 01:01:31;;;;;;;26.23;21.77;;;;;;;;;;6200504;28;20556;-60
2021/12/06 01:04:53;;;;;;;26.97;21.70;;;;;;;;;;6216509;28;20232;-60
2021/12/06 01:08:14;;;;;;;31.47;24.40;;;;;;;;;;6233623;28;20609;-60
2021/12/06 01:11:34;;;;;;;27.97;22.03;;;;;;;;;;6217713;28;20347;-59
2021/12/06 01:14:55;;;;;;;27.10;23.67;;;;;;;;;;6224391;28;20244;-60
2021/12/06 01:18:19;;;;;;;28.43;22.33;;;;;;;;;;6238009;28;21121;-61
2021/12/06 01:21:47;;;;;;;27.10;21.43;;;;;;;;;;6237419;28;20342;-60
2021/12/06 01:25:20;;;;;;;26.23;21.87;;;;;;;;;;6238623;28;20229;-60
2021/12/06 01:29:04;;;;;;;29.83;23.53;;;;;;;;;;6239376;28;20315;-60
2021/12/06 01:32:49;;;;;;;24.30;19.13;;;;;;;;;;6222790;28;20609;-59
2021/12/06 01:39:47;;;;;;;26.07;22.50;;;;;;;;;;6215051;28;20315;-60
2021/12/06 01:43:08;;;;;;;26.53;21.80;;;;;;;;;;6225552;28;20224;-60
2021/12/06 01:46:29;;;;;;;25.10;22.17;;;;;;;;;;6236552;28;20244;-61
2021/12/06 01:49:51;;;;;;;27.50;21.43;;;;;;;;;;6236988;28;20232;-60
2021/12/06 01:53:17;;;;;;;27.60;21.43;;;;;;;;;;6210723;28;20233;-60
2021/12/06 01:56:38;;;;;;;27.37;21.07;;;;;;;;;;6208362;28;20591;-61
2021/12/06 01:59:59;;;;;;;28.53;21.83;;;;;;;;;;6186969;28;20225;-61
2021/12/06 02:03:21;;;;;;;27.60;23.13;;;;;;;;;;6209448;28;20530;-61
2021/12/06 02:06:43;;;;;;;28.60;23.70;;;;;;;;;;6201562;28;20288;-61
2021/12/06 02:10:08;;;;;;;27.10;21.63;;;;;;;;;;6236687;28;20613;-61
2021/12/06 02:13:36;;;;;;;26.10;23.17;;;;;;;;;;6234956;28;20327;-59
2021/12/06 02:17:06;;;;;;;26.77;22.47;;;;;;;;;;6234643;28;20236;-59
2021/12/06 02:20:29;;;;;;;27.73;21.33;;;;;;;;;;6236001;28;20256;-61
2021/12/06 02:23:51;;;;;;;30.23;23.50;;;;;;;;;;6241787;28;20228;-61
2021/12/06 02:27:14;;;;;;;26.80;23.67;;;;;;;;;;6235559;28;20550;-60
2021/12/06 02:30:35;;;;;;;25.73;22.03;;;;;;;;;;6229629;28;20636;-60
2021/12/06 02:33:56;;;;;;;26.77;23.20;;;;;;;;;;6238958;28;20233;-60
2021/12/06 02:37:23;;;;;;;25.53;22.70;;;;;;;;;;6219035;28;20941;-60
2021/12/06 02:40:45;;;;;;;25.53;21.37;;;;;;;;;;6232556;28;20221;-60
2021/12/06 02:44:07;;;;;;;28.97;23.73;;;;;;;;;;6234639;28;20234;-61
2021/12/06 02:47:27;;;;;;;30.47;26.57;;;;;;;;;;6240157;28;20224;-60
2021/12/06 02:50:51;;;;;;;27.87;22.27;;;;;;;;;;6235543;28;20618;-60
2021/12/06 02:54:12;;;;;;;27.17;22.40;;;;;;;;;;6226749;28;20240;-61
2021/12/06 02:57:37;;;;;;;30.23;24.53;;;;;;;;;;6238667;28;20483;-60
2021/12/06 03:01:00;;;;;;;27.60;23.80;;;;;;;;;;6222358;28;20232;-60
2021/12/06 03:04:21;;;;;;;26.23;22.53;;;;;;;;;;6235979;28;20228;-60
2021/12/06 03:07:46;;;;;;;26.17;23.23;;;;;;;;;;6230960;28;20236;-60
2021/12/06 03:11:10;;;;;;;26.90;22.80;;;;;;;;;;6223660;28;20240;-61
2021/12/06 03:14:35;;;;;;;27.13;22.30;;;;;;;;;;6238256;28;20241;-60
2021/12/06 03:18:00;;;;;;;27.10;22.70;;;;;;;;;;6227152;28;20613;-59
2021/12/06 03:21:22;;;;;;;29.27;22.90;;;;;;;;;;6229148;28;20233;-60
2021/12/06 03:24:45;;;;;;;28.23;22.37;;;;;;;;;;6224107;28;20236;-60
2021/12/06 03:28:07;;;;;;;26.10;22.00;;;;;;;;;;6212109;28;20236;-60
2021/12/06 03:31:29;;;;;;;27.63;22.37;;;;;;;;;;6201287;28;20513;-60
2021/12/06 03:34:52;;;;;;;28.07;23.37;;;;;;;;;;6217809;28;20641;-60
2021/12/06 03:38:13;;;;;;;25.33;21.10;;;;;;;;;;6228093;28;20216;-60
2021/12/06 03:41:34;;;;;;;26.93;23.27;;;;;;;;;;6222245;28;20228;-61
2021/12/06 03:44:56;;;;;;;25.00;22.20;;;;;;;;;;6223533;28;20232;-61
2021/12/06 03:48:20;;;;;;;26.77;23.87;;;;;;;;;;6234604;28;20247;-60
2021/12/06 03:51:45;;;;;;;28.67;24.17;;;;;;;;;;6217908;28;20233;-60
2021/12/06 03:55:10;;;;;;;28.60;24.27;;;;;;;;;;6235021;28;20224;-59
2021/12/06 03:58:32;;;;;;;25.50;22.80;;;;;;;;;;6207691;28;20232;-59
2021/12/06 04:01:53;;;;;;;28.27;23.30;;;;;;;;;;6225567;28;20224;-61
2021/12/06 04:05:19;;;;;;;27.83;23.57;;;;;;;;;;6227711;28;20243;-60
2021/12/06 04:08:40;;;;;;;48.83;43.10;;;;;;;;;;6227518;28;20224;-60
2021/12/06 04:12:02;;;;;;;70.07;62.63;;;;;;;;;;6221272;28;20681;-61
2021/12/06 04:15:28;;;;;;;39.10;34.03;;;;;;;;;;6220669;28;20232;-60
2021/12/06 04:18:49;;;;;;;27.43;24.60;;;;;;;;;;6239859;28;20620;-60
2021/12/06 04:22:12;;;;;;;28.00;23.10;;;;;;;;;;6235506;28;20247;-61
2021/12/06 04:25:34;;;;;;;25.10;22.00;;;;;;;;;;6222362;28;20252;-59
2021/12/06 04:28:59;;;;;;;34.27;23.93;;;;;;;;;;6236744;28;20510;-60
2021/12/06 04:32:24;;;;;;;26.53;23.60;;;;;;;;;;6240359;28;20623;-60
2021/12/06 04:35:46;;;;;;;26.60;23.73;;;;;;;;;;6229618;28;20228;-60
2021/12/06 04:39:12;;;;;;;25.10;21.40;;;;;;;;;;6197662;28;20229;-60
2021/12/06 04:42:33;;;;;;;21.90;19.30;;;;;;;;;;6209617;28;20590;-60
2021/12/06 04:45:55;;;;;;;23.17;20.57;;;;;;;;;;6222298;28;20223;-60
2021/12/06 04:49:16;;;;;;;23.13;19.90;;;;;;;;;;6243395;28;20232;-60
2021/12/06 04:52:38;;;;;;;21.20;18.37;;;;;;;;;;6235260;28;20229;-60
2021/12/06 04:56:10;;;;;;;22.23;18.87;;;;;;;;;;6229948;28;20229;-59
2021/12/06 04:59:33;;;;;;;20.37;18.23;;;;;;;;;;6241067;28;20231;-61
2021/12/06 05:02:55;;;;;;;24.17;20.00;;;;;;;;;;6239538;28;20500;-60
2021/12/06 05:06:20;;;;;;;31.03;25.90;;;;;;;;;;6236365;28;20605;-61
2021/12/06 05:09:42;;;;;;;22.10;17.70;;;;;;;;;;6233940;28;20316;-60
2021/12/06 05:13:07;;;;;;;25.07;22.00;;;;;;;;;;6234411;28;20232;-60
2021/12/06 05:16:29;;;;;;;17.80;15.90;;;;;;;;;;6229879;28;20252;-60
2021/12/06 05:19:50;;;;;;;20.63;17.97;;;;;;;;;;6236953;28;20232;-61
2021/12/06 05:23:12;;;;;;;19.00;15.50;;;;;;;;;;6233576;28;20838;-60
2021/12/06 05:26:32;;;;;;;18.43;16.17;;;;;;;;;;6234737;28;20233;-60
2021/12/06 05:30:01;;;;;;;18.27;15.03;;;;;;;;;;6235199;28;20305;-61
2021/12/06 05:33:30;;;;;;;23.02;20.90;;;;;;;;;;6232246;28;21092;-60
2021/12/06 05:36:51;;;;;;;33.00;29.63;;;;;;;;;;6229771;28;20311;-60
2021/12/06 05:40:15;;;;;;;19.90;17.80;;;;;;;;;;6236753;28;20229;-61
2021/12/06 05:43:36;;;;;;;21.53;15.30;;;;;;;;;;6235060;28;20225;-60
2021/12/06 05:46:59;;;;;;;19.17;17.07;;;;;;;;;;6232707;28;20229;-60
2021/12/06 05:50:22;;;;;;;20.10;16.17;;;;;;;;;;6233534;28;20229;-61
2021/12/06 05:53:43;;;;;;;20.70;15.73;;;;;;;;;;6230370;28;20221;-60
2021/12/06 05:57:06;;;;;;;18.93;15.60;;;;;;;;;;6222439;28;20233;-60
2021/12/06 06:00:30;;;;;;;16.67;14.93;;;;;;;;;;6227347;28;20240;-61
2021/12/06 06:03:53;;;;;;;17.70;14.90;;;;;;;;;;6240399;28;20669;-62
2021/12/06 06:07:13;;;;;;;16.93;15.03;;;;;;;;;;6232556;28;20232;-61
2021/12/06 06:10:35;;;;;;;19.37;15.90;;;;;;;;;;6235222;28;20232;-62
2021/12/06 06:13:56;;;;;;;16.03;14.43;;;;;;;;;;6237176;28;20236;-60
2021/12/06 06:17:19;;;;;;;17.53;15.80;;;;;;;;;;6238321;28;20251;-61
2021/12/06 06:20:47;;;;;;;19.00;15.57;;;;;;;;;;6235164;28;20608;-61
2021/12/06 06:24:08;;;;;;;16.27;14.30;;;;;;;;;;6236183;28;20221;-61
2021/12/06 06:27:29;;;;;;;16.67;14.97;;;;;;;;;;6234405;28;20232;-61
2021/12/06 06:30:50;;;;;;;15.30;13.37;;;;;;;;;;6237725;28;20240;-61
2021/12/06 06:34:11;;;;;;;15.70;14.07;;;;;;;;;;6233404;28;20248;-59
2021/12/06 06:37:34;;;;;;;18.80;16.33;;;;;;;;;;6236699;28;20296;-60
2021/12/06 06:40:55;;;;;;;17.57;14.00;;;;;;;;;;6229345;28;20588;-61
2021/12/06 06:44:17;;;;;;;29.53;25.30;;;;;;;;;;6238489;28;20232;-61
2021/12/06 06:47:38;;;;;;;19.63;17.50;;;;;;;;;;6224143;28;20228;-62
2021/12/06 06:50:59;;;;;;;20.70;16.70;;;;;;;;;;6227858;28;20228;-62
2021/12/06 06:54:21;;;;;;;20.17;16.33;;;;;;;;;;6235833;28;20237;-61
2021/12/06 06:57:43;;;;;;;17.40;15.63;;;;;;;;;;6232630;28;20960;-62
2021/12/06 07:01:04;;;;;;;15.77;14.07;;;;;;;;;;6230975;28;21246;-61
2021/12/06 07:04:26;;;;;;;18.67;16.70;;;;;;;;;;6229822;28;20556;-62
2021/12/06 07:07:46;;;;;;;16.83;15.13;;;;;;;;;;6229923;28;20238;-61
2021/12/06 07:11:09;;;;;;;16.03;14.30;;;;;;;;;;6228016;28;20232;-62
2021/12/06 07:14:29;;;;;;;16.83;14.33;;;;;;;;;;6234254;28;20240;-62
2021/12/06 07:17:52;;;;;;;16.73;15.03;;;;;;;;;;6233003;28;20233;-61
2021/12/06 07:21:13;;;;;;;16.43;14.73;;;;;;;;;;6234829;28;20240;-59
2021/12/06 07:24:34;;;;;;;19.10;17.30;;;;;;;;;;6231884;28;21044;-60
2021/12/06 07:27:58;;;;;;;17.23;15.37;;;;;;;;;;6231810;28;20236;-59
2021/12/06 07:31:19;;;;;;;16.13;13.60;;;;;;;;;;6236439;28;20240;-60
2021/12/06 07:34:40;;;;;;;15.80;13.63;;;;;;;;;;6234475;28;20240;-60
2021/12/06 07:38:02;;;;;;;15.30;13.33;;;;;;;;;;6232252;28;20229;-62
2021/12/06 07:41:28;;;;;;;18.13;13.90;;;;;;;;;;6233111;28;20232;-62
2021/12/06 07:44:51;;;;;;;18.07;13.47;;;;;;;;;;6224456;28;20232;-60
2021/12/06 07:48:12;;;;;;;15.57;13.90;;;;;;;;;;6227533;28;20721;-62
2021/12/06 07:51:33;;;;;;;16.23;14.63;;;;;;;;;;6226989;28;20232;-62
2021/12/06 07:54:58;;;;;;;15.53;14.03;;;;;;;;;;6227576;28;20626;-59
2021/12/06 07:58:19;;;;;;;17.57;15.77;;;;;;;;;;6229331;28;20232;-61
2021/12/06 08:01:42;;;;;;;16.90;15.30;;;;;;;;;;6223147;28;21332;-60
2021/12/06 08:08:40;;;;;;;14.80;13.20;;;;;;;;;;6232644;28;20493;-61
2021/12/06 08:12:00;;;;;;;15.83;14.13;;;;;;;;;;6233502;28;20260;-61
2021/12/06 08:15:21;;;;;;;19.60;17.70;;;;;;;;;;6231891;28;20248;-61
2021/12/06 08:18:44;;;;;;;16.43;14.67;;;;;;;;;;6228723;28;20242;-58
2021/12/06 08:22:05;;;;;;;13.90;12.50;;;;;;;;;;6229972;28;20236;-59
2021/12/06 08:25:26;;;;;;;12.83;11.27;;;;;;;;;;6230080;28;20228;-61
2021/12/06 08:28:48;;;;;;;15.57;11.80;;;;;;;;;;6233020;28;20564;-61
2021/12/06 08:32:10;;;;;;;13.40;12.10;;;;;;;;;;6223977;28;20229;-60
2021/12/06 08:35:33;;;;;;;13.30;11.30;;;;;;;;;;6230531;28;20240;-58
2021/12/06 08:38:55;;;;;;;15.93;12.77;;;;;;;;;;6233834;28;20228;-59
2021/12/06 08:42:16;;;;;;;14.93;12.23;;;;;;;;;;6232583;28;20220;-59
2021/12/06 08:45:37;;;;;;;13.50;12.13;;;;;;;;;;6228911;28;20311;-58
2021/12/06 08:49:00;;;;;;;13.40;12.00;;;;;;;;;;6228322;28;20221;-59
2021/12/06 08:52:22;;;;;;;14.77;12.23;;;;;;;;;;6228366;28;20236;-59
2021/12/06 08:55:43;;;;;;;12.30;11.03;;;;;;;;;;6227947;28;20244;-59
2021/12/06 08:59:04;;;;;;;12.43;11.13;;;;;;;;;;6231968;28;20476;-63
2021/12/06 09:02:25;;;;;;;12.63;11.43;;;;;;;;;;6224518;28;20240;-61
2021/12/06 09:05:49;;;;;;;12.47;11.10;;;;;;;;;;6227263;28;20224;-61
2021/12/06 09:09:12;;;;;;;13.30;12.00;;;;;;;;;;6230186;28;20343;-61
2021/12/06 09:12:33;;;;;;;12.33;10.97;;;;;;;;;;6228326;28;20224;-61
2021/12/06 09:15:55;;;;;;;13.37;12.03;;;;;;;;;;6229567;28;22974;-60
2021/12/06 09:19:17;;;;;;;13.13;11.53;;;;;;;;;;6231982;28;20236;-60
2021/12/06 09:22:38;;;;;;;13.00;11.80;;;;;;;;;;6232725;28;20224;-60
2021/12/06 09:26:01;;;;;;;12.23;10.97;;;;;;;;;;6232323;28;20240;-60
2021/12/06 09:29:24;;;;;;;13.70;12.33;;;;;;;;;;6233312;28;20240;-61
2021/12/06 09:32:45;;;;;;;12.53;11.23;;;;;;;;;;6232415;28;20221;-61
2021/12/06 09:36:06;;;;;;;14.00;12.60;;;;;;;;;;6238261;28;20232;-61
2021/12/06 09:39:27;;;;;;;12.53;11.33;;;;;;;;;;6238841;28;20236;-61
2021/12/06 09:42:49;;;;;;;12.40;10.73;;;;;;;;;;6233874;28;20236;-61
2021/12/06 09:46:11;;;;;;;12.23;10.27;;;;;;;;;;6232052;28;20251;-62
2021/12/06 09:49:34;;;;;;;15.20;13.37;;;;;;;;;;6235339;28;20240;-60
2021/12/06 09:52:58;;;;;;;16.10;12.23;;;;;;;;;;6234448;28;20225;-61
2021/12/06 09:56:23;;;;;;;13.63;12.23;;;;;;;;;;6231073;28;20228;-60
2021/12/06 09:59:45;;;;;;;16.00;14.37;;;;;;;;;;6232834;28;20224;-61
2021/12/06 10:03:06;;;;;;;16.60;13.63;;;;;;;;;;6224576;28;20233;-60
2021/12/06 10:06:29;;;;;;;17.33;15.37;;;;;;;;;;6234548;28;20358;-60
2021/12/06 10:09:51;;;;;;;15.50;13.70;;;;;;;;;;6234033;28;20676;-61
2021/12/06 10:13:12;;;;;;;15.40;13.50;;;;;;;;;;6227387;28;20232;-61
2021/12/06 10:16:35;;;;;;;15.37;12.70;;;;;;;;;;6213832;28;20642;-61
2021/12/06 10:19:56;;;;;;;15.60;13.67;;;;;;;;;;6225868;28;20260;-60
2021/12/06 10:23:17;;;;;;;19.23;15.30;;;;;;;;;;6217333;28;20237;-60
2021/12/06 10:26:38;;;;;;;17.80;15.17;;;;;;;;;;6212760;28;20237;-62
2021/12/06 10:30:05;;;;;;;18.67;15.53;;;;;;;;;;6216744;28;20327;-60
2021/12/06 10:33:30;;;;;;;21.03;16.13;;;;;;;;;;6219421;28;20245;-61
2021/12/06 10:36:51;;;;;;;21.80;16.77;;;;;;;;;;6209556;28;20526;-60
2021/12/06 10:40:14;;;;;;;18.70;16.40;;;;;;;;;;6232878;28;20250;-59
2021/12/06 10:43:36;;;;;;;23.80;17.07;;;;;;;;;;6223941;28;20228;-59
2021/12/06 10:46:56;;;;;;;20.20;16.73;;;;;;;;;;6234952;28;20229;-61
2021/12/06 10:50:19;;;;;;;19.10;16.83;;;;;;;;;;6236235;28;20236;-61
2021/12/06 10:53:45;;;;;;;19.20;17.00;;;;;;;;;;6231326;28;20303;-61
2021/12/06 10:57:08;;;;;;;18.83;16.20;;;;;;;;;;6232371;28;20355;-61
2021/12/06 11:00:38;;;;;;;20.90;18.53;;;;;;;;;;6233146;28;20232;-60
2021/12/06 11:04:01;;;;;;;20.90;17.73;;;;;;;;;;6233173;28;20235;-59
2021/12/06 11:07:32;;;;;;;22.10;19.30;;;;;;;;;;6240080;28;20228;-60
2021/12/06 11:10:56;;;;;;;22.07;19.23;;;;;;;;;;6233833;28;20224;-62
2021/12/06 11:14:22;;;;;;;21.13;18.93;;;;;;;;;;6239378;28;20232;-59
2021/12/06 11:17:43;;;;;;;24.50;20.97;;;;;;;;;;6218046;28;20233;-59
2021/12/06 11:21:06;;;;;;;24.53;19.73;;;;;;;;;;6225104;28;20236;-61
2021/12/06 11:24:30;;;;;;;23.37;19.33;;;;;;;;;;6234615;28;20232;-57
2021/12/06 11:27:51;;;;;;;24.50;21.50;;;;;;;;;;6235705;28;20319;-62
2021/12/06 11:31:16;;;;;;;27.07;22.27;;;;;;;;;;6217942;28;20578;-61
2021/12/06 11:34:40;;;;;;;27.17;22.40;;;;;;;;;;6228174;28;20228;-61
2021/12/06 11:38:03;;;;;;;27.47;24.40;;;;;;;;;;6231987;28;20581;-61
2021/12/06 11:41:26;;;;;;;28.60;24.97;;;;;;;;;;6238594;28;20228;-61
2021/12/06 11:44:47;;;;;;;27.93;23.87;;;;;;;;;;6233734;28;20232;-60
2021/12/06 11:48:11;;;;;;;29.50;25.43;;;;;;;;;;6231344;28;20236;-60
2021/12/06 11:51:32;;;;;;;34.43;26.80;;;;;;;;;;6230894;28;20259;-61
2021/12/06 11:54:56;;;;;;;27.20;23.30;;;;;;;;;;6231920;28;20228;-60
2021/12/06 11:58:24;;;;;;;29.40;26.20;;;;;;;;;;6234595;28;20235;-60
2021/12/06 12:01:47;;;;;;;29.03;23.10;;;;;;;;;;6238568;28;20259;-62
2021/12/06 12:05:21;;;;;;;28.97;25.07;;;;;;;;;;6231454;28;20247;-62
2021/12/06 12:08:42;;;;;;;30.83;25.30;;;;;;;;;;6231227;28;20236;-62
2021/12/06 12:12:07;;;;;;;32.27;26.73;;;;;;;;;;6231628;28;20237;-60
2021/12/06 12:15:30;;;;;;;28.67;25.60;;;;;;;;;;6240494;28;20259;-61
2021/12/06 12:18:51;;;;;;;27.37;23.77;;;;;;;;;;6212579;28;20225;-62
2021/12/06 12:22:13;;;;;;;32.67;27.33;;;;;;;;;;6227209;28;20233;-62
2021/12/06 12:25:37;;;;;;;29.63;24.77;;;;;;;;;;6234579;28;20228;-62
2021/12/06 12:29:01;;;;;;;33.30;26.47;;;;;;;;;;6232346;28;20220;-62
2021/12/06 12:32:24;;;;;;;30.00;26.77;;;;;;;;;;6231077;28;20233;-62
2021/12/06 12:35:45;;;;;;;33.77;25.47;;;;;;;;;;6241220;28;20324;-62
2021/12/06 12:39:16;;;;;;;33.60;28.87;;;;;;;;;;6231623;28;20232;-61
2021/12/06 12:42:38;;;;;;;34.57;26.97;;;;;;;;;;6234744;28;20648;-62
2021/12/06 12:46:04;;;;;;;32.97;27.03;;;;;;;;;;6231074;28;20229;-62
2021/12/06 12:49:30;;;;;;;38.37;29.30;;;;;;;;;;6227326;28;20351;-60
2021/12/06 12:52:54;;;;;;;34.03;28.00;;;;;;;;;;6229709;28;20245;-60
2021/12/06 12:56:21;;;;;;;31.27;27.57;;;;;;;;;;6230466;28;20241;-61
2021/12/06 12:59:47;;;;;;;33.60;29.13;;;;;;;;;;6231141;28;20503;-61
2021/12/06 13:03:28;;;;;;;34.83;27.33;;;;;;;;;;6223465;28;20326;-61
2021/12/06 13:06:52;;;;;;;34.03;27.67;;;;;;;;;;6236977;28;20621;-61
2021/12/06 13:10:29;;;;;;;35.13;28.50;;;;;;;;;;6235152;28;20236;-59
2021/12/06 13:13:51;;;;;;;34.67;28.33;;;;;;;;;;6236967;28;20554;-61
2021/12/06 13:17:21;;;;;;;36.73;29.87;;;;;;;;;;6236718;28;20236;-59
2021/12/06 13:20:42;;;;;;;32.93;26.23;;;;;;;;;;6227493;28;20236;-61
2021/12/06 13:24:34;;;;;;;33.17;26.83;;;;;;;;;;6235643;28;20229;-60
2021/12/06 13:27:58;;;;;;;30.50;26.33;;;;;;;;;;6225017;28;20244;-60
2021/12/06 13:31:25;;;;;;;34.33;27.47;;;;;;;;;;6237756;28;20228;-60
2021/12/06 13:34:45;;;;;;;31.10;25.87;;;;;;;;;;6241467;28;20281;-61
2021/12/06 13:38:15;;;;;;;31.83;26.63;;;;;;;;;;6235831;28;20233;-61
2021/12/06 13:41:46;;;;;;;32.83;27.23;;;;;;;;;;6216491;28;20272;-61
2021/12/06 13:45:17;;;;;;;29.97;26.03;;;;;;;;;;6237726;28;20224;-59
2021/12/06 13:48:43;;;;;;;34.53;27.30;;;;;;;;;;6236539;28;20232;-61
2021/12/06 13:52:05;;;;;;;34.17;28.03;;;;;;;;;;6232818;28;20240;-59
2021/12/06 13:55:28;;;;;;;34.27;27.00;;;;;;;;;;6235860;28;20259;-61
2021/12/06 13:58:53;;;;;;;33.13;26.07;;;;;;;;;;6235436;28;20233;-61
2021/12/06 14:02:15;;;;;;;32.83;28.47;;;;;;;;;;6231918;28;20260;-63
2021/12/06 14:05:36;;;;;;;37.97;29.00;;;;;;;;;;6227559;28;20235;-60
2021/12/06 14:08:59;;;;;;;32.77;25.90;;;;;;;;;;6228373;28;20254;-60
2021/12/06 14:12:22;;;;;;;34.73;28.37;;;;;;;;;;6238655;28;20524;-60
2021/12/06 14:15:50;;;;;;;35.77;25.60;;;;;;;;;;6220236;28;20232;-61
2021/12/06 14:19:12;;;;;;;35.90;27.13;;;;;;;;;;6231086;28;20240;-61
2021/12/06 14:22:34;;;;;;;32.87;25.27;;;;;;;;;;6233240;28;20228;-61
2021/12/06 14:26:02;;;;;;;27.60;22.20;;;;;;;;;;6232015;28;20674;-61
2021/12/06 14:29:25;;;;;;;29.97;24.40;;;;;;;;;;6233860;28;20256;-64
2021/12/06 14:32:49;;;;;;;30.13;26.17;;;;;;;;;;6233452;28;20232;-61
2021/12/06 14:36:10;;;;;;;31.73;26.70;;;;;;;;;;6234496;28;20233;-60
2021/12/06 14:39:32;;;;;;;34.20;26.87;;;;;;;;;;6231807;28;20233;-61
2021/12/06 14:42:53;;;;;;;32.40;26.43;;;;;;;;;;6232643;28;20586;-61
2021/12/06 14:46:14;;;;;;;33.87;25.77;;;;;;;;;;6237054;28;20268;-61
2021/12/06 14:49:36;;;;;;;35.00;26.17;;;;;;;;;;6237650;28;20617;-62
2021/12/06 14:52:57;;;;;;;32.00;25.40;;;;;;;;;;6236151;28;20258;-61
2021/12/06 14:56:27;;;;;;;37.30;26.83;;;;;;;;;;6241335;28;20237;-62
2021/12/06 14:59:49;;;;;;;30.00;24.40;;;;;;;;;;6233291;28;20232;-60
2021/12/06 15:03:13;;;;;;;36.67;32.88;;;;;;;;;;6229842;28;20744;-62
2021/12/06 15:06:35;;;;;;;31.33;27.00;;;;;;;;;;6234534;28;20255;-60
2021/12/06 15:09:56;;;;;;;33.43;26.53;;;;;;;;;;6236338;28;20224;-62
2021/12/06 15:13:17;;;;;;;32.53;25.97;;;;;;;;;;6234694;28;20232;-61
2021/12/06 15:16:39;;;;;;;33.67;26.33;;;;;;;;;;6226586;28;20236;-62
2021/12/06 15:20:01;;;;;;;31.70;27.30;;;;;;;;;;6237720;28;20681;-60
2021/12/06 15:23:25;;;;;;;32.10;25.27;;;;;;;;;;6234864;28;20233;-61
2021/12/06 15:26:53;;;;;;;36.67;27.17;;;;;;;;;;6232827;28;20285;-62
2021/12/06 15:30:19;;;;;;;30.23;25.37;;;;;;;;;;6225355;28;20282;-62
2021/12/06 15:33:41;;;;;;;28.83;25.27;;;;;;;;;;6224726;28;20649;-62
2021/12/06 15:37:02;;;;;;;31.70;26.77;;;;;;;;;;6226943;28;21400;-62
2021/12/06 15:40:25;;;;;;;35.80;27.67;;;;;;;;;;6241329;28;21944;-63
2021/12/06 15:43:50;;;;;;;35.07;29.17;;;;;;;;;;6239148;28;20239;-61
2021/12/06 15:47:14;;;;;;;33.97;26.23;;;;;;;;;;6233231;28;20252;-60
2021/12/06 15:50:39;;;;;;;31.40;26.30;;;;;;;;;;6233390;28;20232;-61
2021/12/06 15:54:06;;;;;;;28.00;23.97;;;;;;;;;;6235714;28;20229;-60
2021/12/06 15:57:30;;;;;;;31.30;25.33;;;;;;;;;;6236950;28;20232;-60
2021/12/06 16:00:55;;;;;;;32.60;26.50;;;;;;;;;;6235974;28;20232;-61
2021/12/06 16:04:18;;;;;;;32.63;26.70;;;;;;;;;;6232562;28;20237;-61
2021/12/06 16:07:40;;;;;;;32.73;26.37;;;;;;;;;;6227122;28;20227;-61
2021/12/06 16:11:02;;;;;;;32.83;26.10;;;;;;;;;;6229020;28;20240;-61
2021/12/06 16:14:25;;;;;;;34.43;25.73;;;;;;;;;;6228512;28;20327;-61
2021/12/06 16:17:46;;;;;;;33.47;25.93;;;;;;;;;;6230095;28;20236;-60
2021/12/06 16:21:09;;;;;;;36.87;28.13;;;;;;;;;;6229167;28;20228;-61
2021/12/06 16:24:31;;;;;;;37.73;28.13;;;;;;;;;;6232499;28;20614;-61
2021/12/06 16:27:57;;;;;;;37.17;27.70;;;;;;;;;;6230134;28;20594;-62
2021/12/06 16:31:22;;;;;;;40.93;29.20;;;;;;;;;;6231283;28;20225;-61
2021/12/06 16:34:44;;;;;;;35.77;27.57;;;;;;;;;;6233908;28;20606;-61
2021/12/06 16:38:18;;;;;;;37.00;28.00;;;;;;;;;;6232587;28;20228;-61
2021/12/06 16:41:47;;;;;;;37.53;30.73;;;;;;;;;;6215264;28;20220;-62
2021/12/06 16:45:10;;;;;;;41.67;33.07;;;;;;;;;;6234827;28;20233;-61
2021/12/06 16:48:32;;;;;;;38.57;30.17;;;;;;;;;;6234872;28;20237;-62
2021/12/06 16:51:54;;;;;;;37.00;30.23;;;;;;;;;;6233219;28;20622;-62
2021/12/06 16:55:20;;;;;;;37.93;31.70;;;;;;;;;;6232383;28;20236;-61
2021/12/06 16:58:43;;;;;;;33.63;27.30;;;;;;;;;;6233816;28;20232;-61
2021/12/06 17:02:06;;;;;;;32.20;26.57;;;;;;;;;;6229646;28;20224;-62
2021/12/06 17:05:30;;;;;;;33.17;26.37;;;;;;;;;;6237148;28;20326;-63
2021/12/06 17:08:54;;;;;;;34.87;27.23;;;;;;;;;;6235289;28;20232;-62
2021/12/06 17:12:14;;;;;;;36.33;27.97;;;;;;;;;;6233495;28;20233;-61
2021/12/06 17:15:37;;;;;;;35.83;29.93;;;;;;;;;;6233742;28;20232;-61
2021/12/06 17:19:09;;;;;;;36.43;27.27;;;;;;;;;;6233796;28;20244;-61
2021/12/06 17:22:31;;;;;;;33.90;28.63;;;;;;;;;;6230763;28;20604;-61
2021/12/06 17:25:55;;;;;;;37.47;28.53;;;;;;;;;;6228376;28;20223;-60
2021/12/06 17:29:17;;;;;;;34.13;29.20;;;;;;;;;;6231476;28;20228;-60
2021/12/06 17:32:53;;;;;;;38.60;30.03;;;;;;;;;;6227944;28;20220;-61
2021/12/06 17:36:16;;;;;;;34.83;27.13;;;;;;;;;;6227919;28;20236;-60
2021/12/06 17:39:43;;;;;;;37.33;29.70;;;;;;;;;;6229259;28;20697;-61
2021/12/06 17:43:04;;;;;;;34.67;29.23;;;;;;;;;;6227897;28;20244;-61
2021/12/06 17:46:26;;;;;;;38.63;29.43;;;;;;;;;;6234629;28;20315;-60
2021/12/06 17:49:46;;;;;;;33.30;29.17;;;;;;;;;;6227021;28;20225;-61
2021/12/06 17:53:08;;;;;;;38.20;27.73;;;;;;;;;;6211121;28;20726;-60
2021/12/06 17:56:31;;;;;;;35.90;29.80;;;;;;;;;;6217987;28;20327;-60
2021/12/06 17:59:52;;;;;;;35.70;26.77;;;;;;;;;;6212144;28;22065;-61
2021/12/06 18:03:13;;;;;;;36.00;29.10;;;;;;;;;;6223154;28;20236;-60
2021/12/06 18:06:33;;;;;;;38.63;29.70;;;;;;;;;;6232697;28;20689;-61
2021/12/06 18:09:55;;;;;;;35.97;29.23;;;;;;;;;;6228514;28;20233;-61
2021/12/06 18:13:17;;;;;;;35.23;28.67;;;;;;;;;;6228274;28;20237;-60
2021/12/06 18:16:39;;;;;;;35.07;28.20;;;;;;;;;;6232419;28;20228;-59
2021/12/06 18:19:59;;;;;;;38.97;28.67;;;;;;;;;;6234554;28;20239;-60
2021/12/06 18:23:20;;;;;;;33.23;27.50;;;;;;;;;;6234925;28;20228;-61
2021/12/06 18:26:42;;;;;;;33.73;27.23;;;;;;;;;;6229933;28;20228;-60
2021/12/06 18:30:07;;;;;;;42.10;30.47;;;;;;;;;;6237107;28;20232;-61
2021/12/06 18:33:27;;;;;;;34.27;28.10;;;;;;;;;;6213833;28;20236;-60
2021/12/06 18:36:49;;;;;;;32.73;26.87;;;;;;;;;;6233872;28;20216;-60
2021/12/06 18:40:22;;;;;;;37.50;28.67;;;;;;;;;;6227554;28;20232;-62
2021/12/06 18:44:10;;;;;;;34.40;28.30;;;;;;;;;;6235547;28;20661;-60
2021/12/06 18:47:37;;;;;;;34.50;29.23;;;;;;;;;;6229601;28;20528;-61
2021/12/06 18:51:00;;;;;;;38.73;28.47;;;;;;;;;;6231250;28;20252;-61
2021/12/06 18:54:21;;;;;;;34.47;27.23;;;;;;;;;;6231354;28;20257;-61
2021/12/06 18:57:43;;;;;;;36.77;29.63;;;;;;;;;;6236144;28;20229;-60
2021/12/06 19:01:05;;;;;;;37.13;29.93;;;;;;;;;;6226318;28;20315;-60
2021/12/06 19:04:27;;;;;;;34.77;29.53;;;;;;;;;;6233658;28;20232;-61
2021/12/06 19:07:49;;;;;;;32.70;27.27;;;;;;;;;;6227687;28;20240;-61
2021/12/06 19:11:10;;;;;;;33.43;28.80;;;;;;;;;;6233437;28;20232;-60
2021/12/06 19:14:31;;;;;;;34.37;28.57;;;;;;;;;;6233017;28;20320;-60
2021/12/06 19:17:52;;;;;;;37.23;28.90;;;;;;;;;;6225596;28;20225;-60
2021/12/06 19:21:16;;;;;;;35.40;31.00;;;;;;;;;;6232960;28;20236;-62
2021/12/06 19:24:37;;;;;;;29.17;24.43;;;;;;;;;;6230295;28;20351;-59
2021/12/06 19:27:58;;;;;;;32.17;27.73;;;;;;;;;;6235033;28;20609;-60
2021/12/06 19:31:19;;;;;;;32.33;27.33;;;;;;;;;;6226232;28;20229;-61
2021/12/06 19:34:43;;;;;;;35.63;30.50;;;;;;;;;;6209800;28;20237;-61
2021/12/06 19:38:06;;;;;;;35.77;29.00;;;;;;;;;;6223634;28;20228;-61
2021/12/06 19:41:27;;;;;;;28.60;25.50;;;;;;;;;;6231247;28;20315;-61
2021/12/06 19:44:49;;;;;;;32.47;26.30;;;;;;;;;;6234210;28;20233;-60
2021/12/06 19:48:10;;;;;;;35.00;28.97;;;;;;;;;;6235353;28;20232;-61